createdAt,value
2019-03-05T00:01:10.488Z,10.97
2019-03-05T00:03:38.968Z,11.67
2019-03-05T00:06:07.454Z,10.87
2019-03-05T00:08:36.056Z,19.13
2019-03-05T00:11:04.623Z,13.57
2019-03-05T00:13:33.182Z,9.97
2019-03-05T00:16:03.099Z,13.43
2019-03-05T00:18:32.770Z,11.33
2019-03-05T00:21:01.231Z,16.43
2019-03-05T00:23:46.938Z,16.47
2019-03-05T00:26:16.749Z,15.53
2019-03-05T00:29:00.455Z,13.93
2019-03-05T00:31:40.418Z,17.97
2019-03-05T00:34:20.402Z,15.13
2019-03-05T00:36:51.935Z,12.70
2019-03-05T00:39:38.440Z,11.23
2019-03-05T00:42:32.489Z,10.70
2019-03-05T00:45:22.065Z,9.70
2019-03-05T00:51:40.143Z,12.63
2019-03-05T00:54:20.752Z,11.63
2019-03-05T00:56:52.312Z,10.47
2019-03-05T00:59:45.306Z,11.17
2019-03-05T01:02:15.117Z,13.60
2019-03-05T01:05:04.748Z,12.70
2019-03-05T01:07:33.300Z,8.33
2019-03-05T01:10:01.852Z,12.27
2019-03-05T01:12:32.124Z,9.40
2019-03-05T01:27:20.123Z,9.33
2019-03-05T01:32:50.499Z,8.07
2019-03-05T01:35:23.072Z,8.57
2019-03-05T01:37:51.532Z,8.53
2019-03-05T01:40:21.662Z,7.50
2019-03-05T01:42:50.198Z,8.93
2019-03-05T01:45:18.646Z,9.80
2019-03-05T01:47:47.186Z,9.33
2019-03-05T01:50:15.725Z,8.10
2019-03-05T01:53:32.560Z,8.50
2019-03-05T01:56:06.036Z,7.43
2019-03-05T01:58:34.492Z,7.67
2019-03-05T02:01:03.488Z,8.00
2019-03-05T02:03:31.938Z,9.70
2019-03-05T02:06:01.474Z,8.80
2019-03-05T02:08:29.939Z,13.70
2019-03-05T02:10:58.742Z,8.73
2019-03-05T02:13:27.307Z,12.33
2019-03-05T02:15:55.762Z,11.03
2019-03-05T02:18:26.134Z,13.70
2019-03-05T02:20:55.894Z,9.63
2019-03-05T02:23:30.166Z,10.33
2019-03-05T02:26:18.971Z,12.90
2019-03-05T02:32:52.638Z,12.13
2019-03-05T02:35:30.045Z,10.40
2019-03-05T02:41:28.192Z,12.30
2019-03-05T02:57:44.295Z,13.53
2019-03-05T03:00:14.501Z,12.33
2019-03-05T03:02:44.625Z,16.53
2019-03-05T03:05:14.902Z,11.67
2019-03-05T03:07:45.338Z,13.63
2019-03-05T03:10:19.323Z,11.90
2019-03-05T03:12:47.843Z,17.27
2019-03-05T03:15:16.823Z,17.00
2019-03-05T03:17:45.855Z,15.60
2019-03-05T03:20:15.865Z,14.50
2019-03-05T03:22:44.662Z,20.43
2019-03-05T03:25:17.671Z,13.80
2019-03-05T03:27:46.129Z,14.30
2019-03-05T03:30:16.927Z,15.43
2019-03-05T03:32:45.488Z,18.17
2019-03-05T03:35:15.472Z,16.33
2019-03-05T03:37:48.438Z,19.83
2019-03-05T03:40:18.927Z,18.03
2019-03-05T03:42:47.388Z,16.57
2019-03-05T03:45:17.912Z,14.27
2019-03-05T03:47:46.742Z,16.70
2019-03-05T03:57:41.740Z,13.47
2019-03-05T04:06:00.946Z,14.37
2019-03-05T04:15:21.952Z,15.73
2019-03-05T04:17:50.621Z,15.13
2019-03-05T04:20:51.378Z,17.43
2019-03-05T04:24:14.981Z,12.80
2019-03-05T04:37:39.426Z,15.90
2019-03-05T04:43:14.419Z,11.70
2019-03-05T04:45:53.580Z,12.57
2019-03-05T04:48:22.070Z,20.60
2019-03-05T04:50:55.271Z,20.10
2019-03-05T04:53:23.757Z,12.10
2019-03-05T04:55:52.244Z,13.67
2019-03-05T04:58:20.718Z,13.00
2019-03-05T05:00:49.264Z,14.30
2019-03-05T05:03:17.730Z,24.13
2019-03-05T05:05:46.196Z,11.40
2019-03-05T05:08:14.644Z,10.73
2019-03-05T05:10:43.124Z,26.03
2019-03-05T05:13:11.576Z,16.30
2019-03-05T05:15:41.179Z,21.37
2019-03-05T05:18:10.432Z,15.30
2019-03-05T05:20:38.944Z,14.20
2019-03-05T05:23:07.414Z,13.13
2019-03-05T05:25:35.952Z,12.90
2019-03-05T05:28:04.411Z,13.30
2019-03-05T05:30:37.286Z,14.53
2019-03-05T05:33:06.597Z,10.60
2019-03-05T05:35:35.240Z,15.40
2019-03-05T05:40:43.153Z,13.10
2019-03-05T05:40:51.572Z,11.10
2019-03-05T05:43:23.133Z,9.20
2019-03-05T05:51:44.345Z,17.33
2019-03-05T05:54:12.538Z,9.37
2019-03-05T06:10:45.313Z,11.63
2019-03-05T06:13:14.678Z,10.50
2019-03-05T06:16:25.552Z,27.83
2019-03-05T06:19:18.251Z,13.93
2019-03-05T06:22:32.949Z,11.20
2019-03-05T06:34:22.872Z,10.43
2019-03-05T07:15:17.605Z,15.27
2019-03-05T07:21:32.180Z,15.73
2019-03-05T07:24:36.816Z,11.73
2019-03-05T07:27:42.271Z,15.00
2019-03-05T07:30:13.941Z,13.33
2019-03-05T07:32:43.811Z,14.93
2019-03-05T07:35:14.970Z,12.40
2019-03-05T07:37:43.459Z,11.40
2019-03-05T07:40:12.355Z,12.13
2019-03-05T07:42:40.843Z,11.00
2019-03-05T07:45:11.119Z,12.50
2019-03-05T07:47:39.572Z,13.60
2019-03-05T07:50:12.485Z,11.70
2019-03-05T07:52:40.937Z,14.00
2019-03-05T07:55:14.285Z,16.47
2019-03-05T07:57:43.391Z,20.43
2019-03-05T08:00:17.365Z,11.90
2019-03-05T08:03:02.025Z,17.77
2019-03-05T08:05:30.573Z,16.67
2019-03-05T08:08:26.320Z,37.30
2019-03-05T08:10:49.363Z,13.80
2019-03-05T08:13:20.907Z,13.57
2019-03-05T08:16:08.811Z,12.17
2019-03-05T08:18:37.419Z,20.80
2019-03-05T08:21:06.727Z,15.83
2019-03-05T08:23:35.274Z,13.70
2019-03-05T08:26:04.212Z,14.13
2019-03-05T08:28:32.665Z,12.20
2019-03-05T08:31:01.138Z,16.33
2019-03-05T08:33:50.054Z,13.30
2019-03-05T08:36:18.635Z,13.93
2019-03-05T08:43:06.384Z,10.07
2019-03-05T08:45:36.415Z,12.10
2019-03-05T08:48:07.873Z,10.93
2019-03-05T08:50:36.356Z,19.00
2019-03-05T08:53:04.966Z,11.20
2019-03-05T08:55:33.513Z,11.00
2019-03-05T08:58:01.975Z,10.07
2019-03-05T09:04:11.298Z,9.73
2019-03-05T09:06:41.372Z,9.80
2019-03-05T09:09:11.084Z,8.47
2019-03-05T09:11:39.628Z,8.27
2019-03-05T09:27:41.870Z,9.03
2019-03-05T09:43:32.180Z,13.50
2019-03-05T09:46:10.902Z,15.13
2019-03-05T09:48:39.368Z,11.60
2019-03-05T09:51:07.872Z,10.73
2019-03-05T09:53:36.713Z,8.33
2019-03-05T09:56:05.947Z,12.30
2019-03-05T09:58:34.644Z,9.20
2019-03-05T10:01:03.194Z,10.20
2019-03-05T10:03:31.722Z,9.20
2019-03-05T10:06:00.220Z,9.10
2019-03-05T10:21:11.980Z,9.40
2019-03-05T10:27:29.382Z,9.37
2019-03-05T10:31:00.165Z,12.23
2019-03-05T10:37:18.711Z,10.30
2019-03-05T10:56:27.092Z,10.73
2019-03-05T12:25:05.511Z,8.47
2019-03-05T12:27:35.921Z,8.20
2019-03-05T12:30:07.233Z,8.40
2019-03-05T12:32:36.259Z,8.43
2019-03-05T12:35:10.156Z,6.07
2019-03-05T12:37:39.279Z,8.00
2019-03-05T12:40:11.118Z,6.70
2019-03-05T12:42:40.030Z,7.30
2019-03-05T12:45:11.080Z,6.20
2019-03-05T12:47:39.686Z,7.30
2019-03-05T12:50:22.848Z,12.23
2019-03-05T12:52:52.316Z,7.67
2019-03-05T12:55:21.415Z,7.17
2019-03-05T12:57:50.030Z,7.90
2019-03-05T13:00:22.095Z,9.00
2019-03-05T13:02:51.601Z,7.77
2019-03-05T13:05:21.264Z,11.87
2019-03-05T13:07:52.551Z,7.00
2019-03-05T13:10:34.962Z,11.67
2019-03-05T13:12:59.128Z,7.97
2019-03-05T13:15:32.954Z,9.97
2019-03-05T13:18:01.553Z,9.20
2019-03-05T13:20:30.040Z,7.60
2019-03-05T13:22:58.601Z,8.50
2019-03-05T13:25:28.471Z,7.93
2019-03-05T13:27:57.512Z,11.90
2019-03-05T13:30:29.053Z,8.10
2019-03-05T13:32:59.245Z,7.90
2019-03-05T13:35:30.348Z,10.67
2019-03-05T13:38:03.353Z,7.37
2019-03-05T13:40:34.036Z,10.23
2019-03-05T13:43:03.494Z,8.80
2019-03-05T13:45:31.959Z,10.17
2019-03-05T13:48:06.777Z,7.87
2019-03-05T13:51:01.099Z,7.57
2019-03-05T13:53:47.651Z,9.47
2019-03-05T13:56:52.756Z,9.33
2019-03-05T13:59:42.198Z,9.97
2019-03-05T14:02:11.486Z,9.53
2019-03-05T14:04:45.933Z,7.90
2019-03-05T14:07:23.374Z,9.10
2019-03-05T14:09:52.867Z,12.90
2019-03-05T14:12:21.332Z,10.03
2019-03-05T14:14:49.911Z,14.20
2019-03-05T14:17:25.832Z,9.40
2019-03-05T14:19:55.705Z,9.63
2019-03-05T14:22:24.615Z,11.00
2019-03-05T14:25:01.448Z,9.93
2019-03-05T14:27:23.573Z,9.07
2019-03-05T14:29:52.349Z,9.00
2019-03-05T14:32:21.052Z,9.20
2019-03-05T14:34:52.684Z,8.63
2019-03-05T14:37:21.429Z,7.70
2019-03-05T14:39:50.602Z,10.83
2019-03-05T14:42:19.393Z,10.10
2019-03-05T14:44:48.101Z,8.17
2019-03-05T14:47:18.050Z,9.63
2019-03-05T14:49:46.798Z,11.40
2019-03-05T14:52:15.451Z,8.57
2019-03-05T14:54:44.327Z,9.00
2019-03-05T14:57:12.834Z,8.47
2019-03-05T14:59:41.535Z,9.10
2019-03-05T15:02:10.286Z,7.30
2019-03-05T15:04:38.967Z,13.00
2019-03-05T15:07:07.602Z,8.40
2019-03-05T15:09:36.292Z,10.23
2019-03-05T15:12:05.152Z,8.03
2019-03-05T15:14:33.869Z,7.83
2019-03-05T15:17:02.626Z,8.93
2019-03-05T15:19:31.698Z,9.27
2019-03-05T15:22:01.751Z,10.53
2019-03-05T15:24:30.734Z,8.60
2019-03-05T15:26:59.411Z,9.00
2019-03-05T15:29:28.365Z,11.40
2019-03-05T15:31:57.234Z,10.67
2019-03-05T15:34:25.893Z,12.40
2019-03-05T15:36:54.950Z,13.83
2019-03-05T15:39:23.763Z,10.90
2019-03-05T15:41:53.806Z,8.87
2019-03-05T15:44:22.530Z,10.30
2019-03-05T15:46:51.269Z,10.67
2019-03-05T15:49:20.009Z,9.37
2019-03-05T15:51:48.849Z,13.00
2019-03-05T15:54:17.613Z,12.10
2019-03-05T15:56:46.260Z,14.43
2019-03-05T15:59:15.630Z,11.27
2019-03-05T16:01:44.485Z,9.50
2019-03-05T16:04:13.225Z,8.20
2019-03-05T16:06:41.962Z,13.37
2019-03-05T16:09:16.340Z,8.00
2019-03-05T16:11:45.053Z,9.83
2019-03-05T16:14:13.689Z,9.83
2019-03-05T16:16:42.414Z,10.87
2019-03-05T16:19:12.387Z,9.03
2019-03-05T16:21:42.809Z,10.17
2019-03-05T16:24:11.692Z,9.10
2019-03-05T16:26:40.415Z,10.30
2019-03-05T16:29:09.519Z,11.30
2019-03-05T16:31:39.755Z,9.53
2019-03-05T16:34:13.146Z,10.27
2019-03-05T16:36:43.309Z,9.97
2019-03-05T16:39:20.042Z,9.10
2019-03-05T16:41:53.435Z,10.00
2019-03-05T16:44:31.347Z,15.60
2019-03-05T16:47:17.953Z,13.03
2019-03-05T16:49:48.384Z,9.40
2019-03-05T16:52:21.514Z,15.53
2019-03-05T16:55:07.036Z,8.50
2019-03-05T16:57:40.050Z,15.57
2019-03-05T17:00:15.947Z,7.50
2019-03-05T17:03:03.949Z,8.67
2019-03-05T17:05:52.453Z,11.23
2019-03-05T17:08:22.784Z,10.70
2019-03-05T17:11:05.189Z,11.13
2019-03-05T17:13:33.956Z,9.73
2019-03-05T17:16:02.703Z,8.90
2019-03-05T17:18:31.374Z,14.93
2019-03-05T17:21:00.034Z,9.00
2019-03-05T17:23:28.790Z,7.83
2019-03-05T17:25:58.349Z,9.07
2019-03-05T17:28:26.954Z,10.07
2019-03-05T17:30:55.824Z,11.53
2019-03-05T17:33:25.242Z,9.90
2019-03-05T17:35:53.970Z,10.10
2019-03-05T17:38:22.698Z,11.33
2019-03-05T17:40:51.368Z,10.20
2019-03-05T17:43:20.118Z,12.93
2019-03-05T17:45:48.760Z,12.70
2019-03-05T17:48:17.592Z,21.53
2019-03-05T17:50:46.548Z,10.10
2019-03-05T17:53:21.876Z,14.20
2019-03-05T17:55:50.409Z,10.20
2019-03-05T17:58:18.998Z,11.80
2019-03-05T18:00:49.394Z,9.70
2019-03-05T18:03:17.924Z,10.40
2019-03-05T18:05:46.467Z,9.80
2019-03-05T18:08:14.926Z,10.93
2019-03-05T18:10:43.531Z,10.77
2019-03-05T18:13:11.980Z,11.33
2019-03-05T18:15:40.580Z,9.23
2019-03-05T18:18:09.287Z,8.73
2019-03-05T18:20:38.488Z,7.60
2019-03-05T18:23:06.940Z,10.13
2019-03-05T18:25:38.436Z,9.07
2019-03-05T18:28:06.954Z,8.83
2019-03-05T18:30:35.568Z,8.43
2019-03-05T18:33:05.232Z,10.87
2019-03-05T18:35:33.694Z,7.17
2019-03-05T18:38:02.219Z,13.50
2019-03-05T18:40:30.737Z,9.23
2019-03-05T18:42:59.216Z,12.20
2019-03-05T18:45:32.419Z,7.90
2019-03-05T18:48:00.961Z,11.00
2019-03-05T18:50:29.706Z,9.20
2019-03-05T18:53:00.810Z,10.70
2019-03-05T18:55:29.713Z,11.50
2019-03-05T18:57:58.245Z,9.17
2019-03-05T19:00:33.960Z,12.53
2019-03-05T19:03:11.017Z,11.40
2019-03-05T19:05:39.895Z,8.70
2019-03-05T19:08:08.436Z,8.50
2019-03-05T19:10:38.600Z,13.23
2019-03-05T19:13:07.191Z,7.67
2019-03-05T19:15:36.185Z,13.10
2019-03-05T19:18:06.045Z,12.27
2019-03-05T19:20:35.365Z,9.30
2019-03-05T19:23:03.883Z,14.43
2019-03-05T19:25:34.549Z,10.40
2019-03-05T19:28:03.015Z,12.70
2019-03-05T19:30:49.414Z,11.20
2019-03-05T19:33:17.959Z,10.23
2019-03-05T19:35:46.579Z,14.27
2019-03-05T19:38:15.197Z,10.40
2019-03-05T19:40:45.001Z,11.60
2019-03-05T19:43:13.595Z,11.83
2019-03-05T19:45:46.219Z,9.37
2019-03-05T19:48:14.765Z,11.63
2019-03-05T19:50:43.794Z,11.17
2019-03-05T19:53:12.251Z,8.87
2019-03-05T19:55:40.745Z,10.03
2019-03-05T19:58:13.741Z,12.40
2019-03-05T20:00:46.045Z,9.53
2019-03-05T20:03:14.592Z,11.90
2019-03-05T20:05:43.125Z,13.07
2019-03-05T20:08:11.593Z,9.70
2019-03-05T20:10:40.136Z,11.50
2019-03-05T20:13:08.614Z,16.93
2019-03-05T20:15:37.328Z,10.93
2019-03-05T20:18:07.341Z,12.43
2019-03-05T20:20:36.184Z,13.13
2019-03-05T20:23:05.361Z,14.70
2019-03-05T20:25:33.958Z,11.60
2019-03-05T20:28:02.494Z,11.10
2019-03-05T20:30:31.039Z,12.10
2019-03-05T20:32:59.569Z,9.77
2019-03-05T20:35:28.102Z,12.23
2019-03-05T20:37:56.647Z,12.17
2019-03-05T20:40:27.511Z,12.53
2019-03-05T20:42:56.033Z,13.13
2019-03-05T20:45:36.074Z,14.80
2019-03-05T20:48:04.953Z,10.47
2019-03-05T20:50:34.633Z,12.67
2019-03-05T20:53:03.550Z,10.50
2019-03-05T20:55:32.266Z,15.30
2019-03-05T20:58:03.448Z,9.27
2019-03-05T21:00:39.055Z,13.63
2019-03-05T21:03:09.155Z,10.53
2019-03-05T21:05:39.934Z,16.63
2019-03-05T21:08:08.824Z,10.87
2019-03-05T21:10:37.424Z,9.87
2019-03-05T21:13:06.102Z,9.93
2019-03-05T21:15:35.725Z,11.43
2019-03-05T21:18:06.874Z,16.03
2019-03-05T21:20:35.421Z,14.20
2019-03-05T21:23:04.130Z,17.97
2019-03-05T21:25:33.020Z,8.93
2019-03-05T21:28:01.571Z,12.25
2019-03-05T21:30:30.199Z,10.60
2019-03-05T21:32:58.728Z,12.00
2019-03-05T21:35:27.336Z,10.70
2019-03-05T21:37:57.943Z,9.70
2019-03-05T21:40:29.250Z,13.27
2019-03-05T21:46:12.617Z,11.00
2019-03-05T21:48:41.144Z,13.13
2019-03-05T21:51:23.238Z,12.80
2019-03-05T21:54:03.790Z,22.77
2019-03-05T21:57:00.479Z,21.93
2019-03-05T21:59:34.459Z,16.10
2019-03-05T22:02:02.984Z,16.93
2019-03-05T22:04:31.532Z,15.10
2019-03-05T22:07:00.004Z,11.30
2019-03-05T22:09:28.686Z,22.70
2019-03-05T22:11:57.246Z,15.03
2019-03-05T22:14:25.762Z,13.70
2019-03-05T22:16:54.250Z,18.53
2019-03-05T22:19:22.711Z,13.50
2019-03-05T22:21:51.655Z,17.27
2019-03-05T22:24:20.136Z,16.43
2019-03-05T22:26:50.009Z,15.53
2019-03-05T22:29:18.476Z,13.00
2019-03-05T22:31:48.384Z,15.40
2019-03-05T22:34:17.134Z,16.00
2019-03-05T22:36:45.656Z,15.80
2019-03-05T22:39:16.923Z,21.23
2019-03-05T22:41:45.444Z,16.33
2019-03-05T22:44:14.440Z,12.70
2019-03-05T22:46:42.995Z,13.80
2019-03-05T22:49:11.470Z,13.67
2019-03-05T22:51:39.965Z,17.23
2019-03-05T22:54:08.539Z,19.75
2019-03-05T22:56:36.994Z,14.37
2019-03-05T22:59:05.950Z,13.30
2019-03-05T23:01:38.562Z,16.40
2019-03-05T23:04:07.302Z,27.43
2019-03-05T23:06:35.922Z,26.57
2019-03-05T23:09:07.831Z,28.20
2019-03-05T23:11:38.155Z,30.93
2019-03-05T23:14:07.192Z,28.63
2019-03-05T23:16:35.656Z,33.00
2019-03-05T23:19:04.201Z,29.20
2019-03-05T23:21:32.825Z,30.10
2019-03-05T23:24:01.377Z,23.00
2019-03-05T23:26:30.050Z,21.10
2019-03-05T23:28:58.600Z,24.52
2019-03-05T23:31:27.227Z,18.40
2019-03-05T23:33:55.859Z,17.90
2019-03-05T23:36:24.466Z,15.13
2019-03-05T23:38:53.009Z,19.23
2019-03-05T23:41:23.015Z,16.77
2019-03-05T23:43:51.471Z,13.00
2019-03-05T23:46:19.944Z,17.80
2019-03-05T23:48:48.577Z,13.10
2019-03-05T23:51:17.185Z,17.10
2019-03-05T23:53:45.797Z,14.80
2019-03-05T23:56:14.327Z,13.17
2019-03-05T23:58:42.793Z,13.40
